Time;durP1;ratioP1;P1;durP2;ratioP2;P2;SDS_P1;SDS_P2;PMS_P1;PMS_P2;Temp;Humidity;BMP_temperature;BMP_pressure;BME280_temperature;BME280_humidity;BME280_pressure;Samples;Min_cycle;Max_cycle;Signal;HPM_P1;HPM_P2
2021/10/25 00:01:01;;;;;;;14.27;8.07;;;8.00;93.70;;;;;;5022639;28;20304;-75
2021/10/25 00:03:45;;;;;;;13.18;7.75;;;8.00;93.70;;;;;;5008425;28;20044;-75
2021/10/25 00:06:30;;;;;;;11.75;7.90;;;7.90;93.90;;;;;;5036799;28;20048;-75
2021/10/25 00:09:15;;;;;;;13.27;7.85;;;7.90;94.10;;;;;;4993719;28;20092;-75
2021/10/25 00:11:59;;;;;;;12.15;8.25;;;7.80;94.20;;;;;;5036211;28;20087;-74
2021/10/25 00:14:43;;;;;;;11.80;7.80;;;7.80;94.30;;;;;;5008948;28;20049;-75
2021/10/25 00:17:26;;;;;;;12.07;7.90;;;7.80;94.30;;;;;;5023381;28;20047;-75
2021/10/25 00:20:11;;;;;;;9.63;7.70;;;7.70;94.40;;;;;;5021227;28;20056;-75
2021/10/25 00:22:56;;;;;;;;;;;7.70;94.40;;;;;;5017821;28;20424;-76
2021/10/25 00:25:41;;;;;;;12.63;8.70;;;7.70;94.70;;;;;;4989437;28;19917;-76
2021/10/25 00:28:25;;;;;;;12.68;8.43;;;7.70;94.80;;;;;;5004394;28;20049;-75
2021/10/25 00:31:09;;;;;;;12.65;8.65;;;7.60;94.90;;;;;;5002470;28;20099;-79
2021/10/25 00:33:53;;;;;;;10.87;8.20;;;7.60;95.10;;;;;;5004246;28;20076;-75
2021/10/25 00:36:38;;;;;;;13.20;8.50;;;7.50;95.10;;;;;;5020745;28;20060;-74
2021/10/25 00:39:22;;;;;;;13.35;8.63;;;7.40;95.00;;;;;;5005885;28;20036;-75
2021/10/25 00:42:06;;;;;;;13.43;9.25;;;7.50;94.90;;;;;;4990917;28;20401;-75
2021/10/25 00:44:50;;;;;;;12.07;8.25;;;7.40;94.80;;;;;;4979237;28;20037;-74
2021/10/25 00:47:35;;;;;;;11.82;8.40;;;7.30;95.10;;;;;;5006939;28;20049;-75
2021/10/25 00:50:19;;;;;;;9.97;8.03;;;7.30;95.30;;;;;;5005812;28;20139;-75
2021/10/25 00:53:04;;;;;;;10.98;8.18;;;7.20;95.30;;;;;;4993726;28;20292;-75
2021/10/25 00:55:49;;;;;;;;;;;7.20;95.40;;;;;;5005856;28;20102;-75
2021/10/25 00:58:33;;;;;;;11.27;8.05;;;7.20;95.50;;;;;;4988643;28;19920;-76
2021/10/25 01:01:18;;;;;;;12.85;7.88;;;7.20;95.70;;;;;;5002072;28;20033;-75
2021/10/25 01:04:02;;;;;;;13.05;8.25;;;7.20;95.90;;;;;;4989260;28;20040;-75
2021/10/25 01:06:47;;;;;;;14.82;9.15;;;7.10;95.90;;;;;;4989513;28;20087;-75
2021/10/25 01:09:33;;;;;;;;;;;7.20;96.00;;;;;;5018289;28;20036;-75
2021/10/25 01:12:19;;;;;;;15.75;8.18;;;7.20;96.00;;;;;;5003541;28;20004;-75
2021/10/25 01:15:03;;;;;;;;;;;7.20;96.00;;;;;;5002900;28;20037;-77
2021/10/25 01:17:56;;;;;;;11.45;8.50;;;7.20;96.00;;;;;;5001988;28;20371;-75
2021/10/25 01:20:40;;;;;;;12.45;8.48;;;7.20;96.00;;;;;;5002416;28;20032;-76
2021/10/25 01:23:25;;;;;;;11.40;9.00;;;7.10;96.00;;;;;;5001486;28;20088;-75
2021/10/25 01:26:09;;;;;;;14.15;8.63;;;7.10;96.10;;;;;;5001469;28;20057;-75
2021/10/25 01:28:53;;;;;;;12.25;8.88;;;7.10;96.30;;;;;;4987720;28;20090;-76
2021/10/25 01:31:38;;;;;;;11.95;8.68;;;7.00;96.30;;;;;;5002431;28;20036;-75
2021/10/25 01:34:23;;;;;;;12.02;9.20;;;6.90;96.50;;;;;;5004529;28;20044;-75
2021/10/25 01:37:08;;;;;;;11.48;8.18;;;6.90;96.50;;;;;;4989377;28;20243;-75
2021/10/25 01:39:53;;;;;;;10.77;8.32;;;6.90;96.50;;;;;;5016457;28;20444;-75
2021/10/25 01:42:37;;;;;;;14.27;8.82;;;6.80;96.50;;;;;;5003319;28;20052;-76
2021/10/25 01:45:22;;;;;;;12.98;8.23;;;6.90;96.40;;;;;;4990767;28;20064;-75
2021/10/25 01:48:06;;;;;;;13.70;7.93;;;6.90;96.30;;;;;;5003857;28;20037;-75
2021/10/25 01:50:50;;;;;;;12.73;8.43;;;6.90;96.20;;;;;;4977270;28;20445;-75
2021/10/25 01:53:37;;;;;;;15.65;8.85;;;6.80;96.10;;;;;;4994941;28;20080;-75
2021/10/25 01:56:21;;;;;;;13.40;8.05;;;6.80;96.10;;;;;;5024351;28;20075;-75
2021/10/25 01:59:09;;;;;;;12.60;7.70;;;6.90;96.00;;;;;;5023496;28;20124;-76
2021/10/25 02:01:53;;;;;;;17.70;7.97;;;6.80;96.10;;;;;;5039640;28;20105;-75
2021/10/25 02:04:38;;;;;;;11.05;7.95;;;6.80;96.10;;;;;;4996249;28;20037;-75
2021/10/25 02:07:22;;;;;;;11.93;8.00;;;6.80;96.00;;;;;;5009776;28;20045;-76
2021/10/25 02:10:07;;;;;;;19.83;12.13;;;6.90;95.90;;;;;;5023415;28;20041;-76
2021/10/25 02:12:51;;;;;;;11.57;7.90;;;6.90;96.00;;;;;;5010005;28;20532;-75
2021/10/25 02:15:35;;;;;;;13.43;8.45;;;6.90;96.10;;;;;;4995557;28;20045;-75
2021/10/25 02:18:20;;;;;;;13.23;8.88;;;6.90;96.20;;;;;;5009996;28;20417;-76
2021/10/25 02:21:04;;;;;;;12.75;7.80;;;6.80;96.20;;;;;;5024223;28;20102;-75
2021/10/25 02:23:48;;;;;;;13.27;8.98;;;6.80;96.30;;;;;;5009727;28;20083;-75
2021/10/25 02:26:32;;;;;;;13.88;8.70;;;6.80;96.30;;;;;;5038994;28;20059;-75
2021/10/25 02:29:17;;;;;;;13.40;8.75;;;6.80;96.20;;;;;;5023734;28;20080;-76
2021/10/25 02:32:05;;;;;;;13.50;8.85;;;6.80;96.20;;;;;;5024083;28;20037;-75
2021/10/25 02:34:49;;;;;;;13.32;8.00;;;6.80;96.20;;;;;;5024082;28;20052;-75
2021/10/25 02:37:33;;;;;;;12.93;8.40;;;6.80;96.20;;;;;;5024857;28;20036;-75
2021/10/25 02:40:17;;;;;;;10.60;8.60;;;6.80;96.30;;;;;;5010659;28;20404;-75
2021/10/25 02:43:02;;;;;;;;;;;6.70;96.30;;;;;;4998112;28;20054;-74
2021/10/25 02:45:47;;;;;;;12.35;8.60;;;6.70;96.40;;;;;;5013698;28;19916;-75
2021/10/25 02:48:31;;;;;;;18.00;9.45;;;6.70;96.40;;;;;;5028312;28;20044;-76
2021/10/25 02:51:15;;;;;;;14.23;9.10;;;6.70;96.30;;;;;;5001174;28;20040;-75
2021/10/25 02:54:00;;;;;;;10.13;8.63;;;6.60;96.50;;;;;;5030573;28;20044;-75
2021/10/25 02:56:44;;;;;;;13.85;9.20;;;6.70;96.40;;;;;;5031301;28;20056;-75
2021/10/25 02:59:28;;;;;;;12.13;9.48;;;6.70;96.50;;;;;;5019274;28;20041;-75
2021/10/25 03:02:13;;;;;;;12.32;8.60;;;6.70;96.70;;;;;;5022142;28;20047;-76
2021/10/25 03:04:58;;;;;;;;;;;6.70;96.90;;;;;;5015357;28;20061;-75
2021/10/25 03:07:42;;;;;;;11.68;8.20;;;6.70;96.70;;;;;;5029975;28;20276;-75
2021/10/25 03:10:27;;;;;;;18.00;9.17;;;6.60;96.90;;;;;;5027346;28;20527;-76
2021/10/25 03:13:11;;;;;;;;;;;6.60;96.90;;;;;;5025777;28;20253;-75
2021/10/25 03:15:55;;;;;;;12.18;8.18;;;6.60;97.00;;;;;;5028158;28;19912;-75
2021/10/25 03:18:40;;;;;;;11.80;8.23;;;6.60;97.20;;;;;;5028092;28;20160;-76
2021/10/25 03:21:24;;;;;;;15.43;10.27;;;6.50;97.20;;;;;;5014969;28;20075;-75
2021/10/25 03:24:08;;;;;;;15.52;9.57;;;6.50;97.40;;;;;;5014131;28;20440;-75
2021/10/25 03:26:52;;;;;;;17.23;12.13;;;6.50;97.40;;;;;;5014145;28;20044;-75
2021/10/25 03:29:37;;;;;;;17.40;10.45;;;6.40;97.50;;;;;;5028811;28;20053;-75
2021/10/25 03:32:22;;;;;;;14.20;10.05;;;6.40;97.50;;;;;;5000217;28;20699;-76
2021/10/25 03:35:07;;;;;;;15.73;10.50;;;6.30;97.70;;;;;;5027496;28;20067;-75
2021/10/25 03:37:53;;;;;;;;;;;6.30;97.80;;;;;;5026795;28;20056;-76
2021/10/25 03:40:39;;;;;;;13.43;8.57;;;6.30;97.80;;;;;;5025486;28;19940;-75
2021/10/25 03:43:27;;;;;;;16.08;9.88;;;6.30;97.90;;;;;;5040264;28;20091;-75
2021/10/25 03:46:20;;;;;;;12.65;8.93;;;6.30;97.90;;;;;;5010800;28;20560;-75
2021/10/25 03:49:14;;;;;;;17.58;8.55;;;6.20;98.00;;;;;;5013087;28;20036;-75
2021/10/25 03:52:03;;;;;;;10.85;9.38;;;6.20;98.00;;;;;;5021810;28;20056;-75
2021/10/25 03:54:56;;;;;;;14.75;9.32;;;6.20;98.00;;;;;;4996329;28;20041;-75
2021/10/25 04:27:47;;;;;;;14.13;8.43;;;5.70;98.60;;;;;;4998155;28;20041;-75
2021/10/25 04:30:33;;;;;;;14.32;9.88;;;5.80;98.60;;;;;;4995067;28;20064;-77
2021/10/25 04:33:17;;;;;;;13.20;9.30;;;5.70;98.60;;;;;;4991815;28;20052;-76
2021/10/25 04:36:01;;;;;;;13.23;9.52;;;5.70;98.90;;;;;;5005050;28;20037;-76
2021/10/25 04:38:45;;;;;;;16.90;9.67;;;5.70;98.80;;;;;;4991586;28;20559;-76
2021/10/25 04:41:29;;;;;;;13.77;9.63;;;5.70;98.80;;;;;;4989699;28;20045;-75
2021/10/25 04:44:13;;;;;;;15.48;10.32;;;5.80;98.80;;;;;;4976447;28;20053;-76
2021/10/25 04:46:57;;;;;;;15.70;10.68;;;5.80;98.50;;;;;;4978305;28;20057;-75
2021/10/25 04:49:42;;;;;;;15.75;9.90;;;5.90;98.60;;;;;;5020757;28;20079;-76
2021/10/25 04:52:29;;;;;;;30.55;16.10;;;5.90;98.50;;;;;;5019744;28;20121;-75
2021/10/25 04:55:13;;;;;;;13.55;9.85;;;5.90;98.50;;;;;;4990909;28;20037;-76
2021/10/25 04:57:58;;;;;;;14.88;9.77;;;5.90;98.40;;;;;;4993344;28;20398;-76
2021/10/25 05:00:42;;;;;;;11.50;8.85;;;6.00;98.40;;;;;;5006165;28;20147;-76
2021/10/25 05:03:27;;;;;;;15.65;9.65;;;5.90;98.20;;;;;;4991801;28;20036;-75
2021/10/25 05:06:17;;;;;;;15.52;9.65;;;5.80;98.20;;;;;;5005990;28;20496;-76
2021/10/25 05:09:02;;;;;;;14.98;9.32;;;5.80;98.40;;;;;;5002074;28;20052;-77
2021/10/25 05:11:47;;;;;;;12.13;9.07;;;5.80;98.30;;;;;;5004528;28;20057;-77
2021/10/25 05:14:31;;;;;;;;;;;5.70;98.30;;;;;;5005045;28;20060;-76
2021/10/25 05:17:16;;;;;;;14.10;9.32;;;5.60;98.30;;;;;;5021520;28;20380;-77
2021/10/25 05:20:00;;;;;;;17.23;9.70;;;5.50;98.70;;;;;;5004868;28;20040;-76
2021/10/25 05:22:45;;;;;;;15.30;9.13;;;5.50;98.70;;;;;;4992095;28;20041;-75
2021/10/25 05:25:29;;;;;;;14.25;9.25;;;5.50;99.00;;;;;;4992374;28;20068;-76
2021/10/25 05:28:13;;;;;;;12.00;9.55;;;5.60;99.00;;;;;;4991052;28;20036;-75
2021/10/25 05:30:57;;;;;;;14.77;9.40;;;5.60;99.00;;;;;;5006646;28;20080;-77
2021/10/25 05:33:41;;;;;;;13.65;9.55;;;5.70;98.80;;;;;;5006906;28;20096;-77
2021/10/25 05:36:26;;;;;;;15.93;9.40;;;5.70;98.80;;;;;;5004153;28;20448;-78
2021/10/25 05:39:10;;;;;;;17.40;9.43;;;5.80;98.50;;;;;;4990934;28;20107;-76
2021/10/25 05:41:54;;;;;;;19.50;10.60;;;5.80;98.40;;;;;;5019164;28;20102;-76
2021/10/25 05:44:38;;;;;;;20.02;10.23;;;5.70;98.50;;;;;;5005608;28;20048;-76
2021/10/25 05:47:23;;;;;;;17.42;10.80;;;5.70;98.60;;;;;;4992999;28;20045;-80
2021/10/25 05:50:08;;;;;;;13.30;9.43;;;5.60;99.00;;;;;;4991965;28;20044;-80
2021/10/25 05:52:53;;;;;;;;;;;5.70;98.60;;;;;;4992428;28;20124;-80
2021/10/25 05:55:38;;;;;;;19.63;9.90;;;5.60;98.80;;;;;;4990018;28;20380;-79
2021/10/25 05:58:23;;;;;;;15.70;10.25;;;5.70;98.90;;;;;;4988988;28;20104;-79
2021/10/25 06:01:12;;;;;;;14.80;9.30;;;5.70;98.80;;;;;;5001909;28;20041;-80
2021/10/25 06:04:05;;;;;;;15.25;9.95;;;5.70;98.60;;;;;;5001432;28;20117;-79
2021/10/25 06:06:49;;;;;;;16.05;10.00;;;5.80;98.90;;;;;;4990382;28;20516;-80
2021/10/25 06:09:34;;;;;;;17.45;10.18;;;5.90;98.70;;;;;;5002452;28;20049;-80
2021/10/25 06:12:19;;;;;;;14.43;9.70;;;5.90;98.60;;;;;;5016761;28;20024;-80
2021/10/25 06:15:10;;;;;;;;;;;5.90;98.70;;;;;;5004345;28;20036;-81
2021/10/25 06:17:58;;;;;;;14.23;9.77;;;5.90;98.70;;;;;;4990263;28;19964;-80
2021/10/25 06:20:43;;;;;;;16.75;9.23;;;5.90;98.30;;;;;;4980546;28;20084;-80
2021/10/25 06:23:27;;;;;;;14.13;9.48;;;6.00;98.50;;;;;;4978339;28;20037;-80
2021/10/25 06:26:10;;;;;;;14.65;9.00;;;6.00;98.40;;;;;;4978536;28;20107;-80
2021/10/25 06:28:56;;;;;;;16.27;10.50;;;6.10;98.40;;;;;;5005919;28;20036;-79
2021/10/25 06:31:41;;;;;;;;;;;6.10;98.30;;;;;;5006255;28;20053;-80
2021/10/25 06:34:27;;;;;;;17.60;9.77;;;6.10;98.40;;;;;;5011279;28;19925;-81
2021/10/25 06:37:11;;;;;;;15.43;8.90;;;6.10;98.40;;;;;;4989073;28;20318;-79
2021/10/25 06:39:56;;;;;;;15.73;9.98;;;6.20;98.40;;;;;;4978979;28;20065;-80
2021/10/25 06:42:40;;;;;;;18.40;10.90;;;6.20;98.20;;;;;;4992094;28;20069;-80
2021/10/25 06:45:24;;;;;;;15.48;9.50;;;6.30;97.90;;;;;;4991770;28;20041;-78
2021/10/25 06:48:09;;;;;;;;;;;6.40;98.00;;;;;;4992633;28;20033;-81
2021/10/25 06:50:53;;;;;;;22.52;10.00;;;6.40;98.00;;;;;;5007710;28;19928;-80
2021/10/25 06:53:38;;;;;;;14.52;9.25;;;6.40;97.80;;;;;;5006665;28;20072;-81
2021/10/25 06:56:22;;;;;;;18.42;11.40;;;6.40;97.90;;;;;;4993573;28;20123;-80
2021/10/25 06:59:06;;;;;;;19.50;11.77;;;6.40;97.90;;;;;;4993387;28;20058;-80
2021/10/25 07:01:50;;;;;;;21.80;12.52;;;6.50;98.00;;;;;;4993180;28;20115;-81
2021/10/25 07:04:34;;;;;;;16.65;10.65;;;6.50;97.90;;;;;;4980496;28;20084;-82
2021/10/25 07:07:21;;;;;;;16.90;10.23;;;6.50;97.90;;;;;;4980937;28;20045;-80
2021/10/25 07:10:07;;;;;;;12.23;9.00;;;6.50;97.80;;;;;;4994664;28;20478;-82
2021/10/25 07:12:52;;;;;;;14.98;9.75;;;6.60;97.70;;;;;;5023625;28;20195;-79
2021/10/25 07:15:44;;;;;;;18.08;9.32;;;6.70;97.60;;;;;;5006148;28;20040;-79
2021/10/25 07:21:53;;;;;;;11.77;8.82;;;6.70;97.70;;;;;;5006785;28;20040;-81
2021/10/25 07:27:27;;;;;;;14.82;9.38;;;6.90;97.40;;;;;;5006033;28;20033;-81
2021/10/25 08:07:03;;;;;;;15.63;9.95;;;7.60;97.50;;;;;;5009690;28;20061;-80
2021/10/25 08:09:51;;;;;;;16.02;10.25;;;7.80;97.20;;;;;;5022496;28;20040;-80
2021/10/25 08:12:39;;;;;;;16.80;9.98;;;7.90;97.00;;;;;;4994263;28;20053;-80
2021/10/25 08:15:33;;;;;;;15.20;8.57;;;8.00;97.10;;;;;;5021424;28;20045;-80
2021/10/25 08:21:27;;;;;;;19.15;9.98;;;8.30;96.30;;;;;;4997100;28;20041;-80
2021/10/25 08:24:14;;;;;;;12.13;10.07;;;8.20;96.30;;;;;;4993212;28;20064;-81
2021/10/25 08:26:59;;;;;;;16.25;9.57;;;8.00;96.40;;;;;;5013292;28;20072;-81
2021/10/25 08:29:47;;;;;;;14.85;9.05;;;8.10;96.10;;;;;;5020440;28;20045;-81
2021/10/25 08:35:30;;;;;;;12.90;9.30;;;8.40;96.40;;;;;;4987500;28;20061;-81
2021/10/25 08:41:20;;;;;;;12.43;8.77;;;8.90;95.60;;;;;;5000658;28;20402;-81
2021/10/25 08:44:06;;;;;;;14.57;8.07;;;8.60;95.40;;;;;;4975260;28;20093;-82
2021/10/25 08:46:54;;;;;;;11.15;8.45;;;8.40;95.70;;;;;;4999105;28;20029;-79
2021/10/25 08:49:44;;;;;;;14.15;9.27;;;8.50;95.80;;;;;;4995658;28;20057;-79
2021/10/25 08:52:31;;;;;;;17.50;9.20;;;8.50;95.80;;;;;;5014274;28;20036;-81
2021/10/25 08:55:17;;;;;;;10.60;8.95;;;8.70;95.90;;;;;;4980569;28;20069;-82
2021/10/25 08:58:02;;;;;;;16.15;8.55;;;8.70;95.90;;;;;;4961927;28;20065;-81
2021/10/25 09:00:52;;;;;;;14.45;8.90;;;8.80;95.90;;;;;;4974159;28;20049;-81
2021/10/25 09:03:39;;;;;;;18.13;9.45;;;8.80;96.40;;;;;;5012494;28;20029;-82
2021/10/25 09:06:23;;;;;;;18.40;9.02;;;8.80;96.40;;;;;;4994942;28;20041;-80
2021/10/25 09:09:08;;;;;;;14.35;9.02;;;8.90;96.30;;;;;;5007448;28;20063;-80
2021/10/25 09:11:58;;;;;;;13.52;8.63;;;9.10;96.20;;;;;;4990949;28;20100;-80
2021/10/25 09:14:44;;;;;;;14.73;9.23;;;9.20;96.00;;;;;;5006556;28;20520;-81
2021/10/25 09:17:41;;;;;;;12.85;8.68;;;9.40;95.70;;;;;;5020888;28;20098;-81
2021/10/25 09:20:26;;;;;;;13.18;8.82;;;9.60;95.50;;;;;;5012213;28;20048;-79
2021/10/25 09:23:11;;;;;;;;;;;9.70;95.60;;;;;;5018320;28;20076;-79
2021/10/25 09:26:01;;;;;;;11.98;8.05;;;9.70;95.80;;;;;;5007192;28;19932;-79
2021/10/25 09:28:53;;;;;;;11.50;7.50;;;9.90;95.30;;;;;;5001516;28;20053;-80
2021/10/25 09:31:38;;;;;;;15.55;8.75;;;10.10;95.20;;;;;;5018882;28;20068;-77
2021/10/25 09:34:52;;;;;;;10.95;8.00;;;10.30;95.10;;;;;;4997342;28;20062;-77
2021/10/25 09:37:46;;;;;;;15.38;8.95;;;10.30;94.80;;;;;;4994366;28;20033;-76
2021/10/25 09:40:49;;;;;;;14.32;8.38;;;10.30;94.70;;;;;;4999151;28;20084;-77
2021/10/25 09:45:07;;;;;;;10.65;8.05;;;10.30;94.70;;;;;;4986845;28;20053;-76
2021/10/25 09:49:46;;;;;;;12.98;8.02;;;10.40;94.60;;;;;;4995205;28;20041;-77
2021/10/25 09:52:35;;;;;;;;;;;10.70;94.50;;;;;;4996507;28;20563;-77
2021/10/25 09:55:22;;;;;;;11.38;7.20;;;10.90;94.30;;;;;;5024767;28;20379;-77
2021/10/25 09:58:17;;;;;;;13.43;8.98;;;11.00;94.00;;;;;;5006681;28;20052;-75
2021/10/25 10:01:01;;;;;;;16.48;8.40;;;11.00;93.50;;;;;;5018599;28;20076;-77
2021/10/25 10:03:46;;;;;;;11.60;7.43;;;11.00;94.10;;;;;;4990865;28;20080;-75
2021/10/25 10:06:30;;;;;;;10.13;8.20;;;11.20;94.00;;;;;;5002950;28;20512;-76
2021/10/25 10:09:16;;;;;;;12.98;8.52;;;11.30;93.60;;;;;;4989450;28;20444;-75
2021/10/25 10:12:00;;;;;;;13.35;8.75;;;11.30;93.40;;;;;;5006029;28;20037;-80
2021/10/25 10:14:50;;;;;;;36.25;9.90;;;11.30;93.30;;;;;;5005663;28;20088;-80
2021/10/25 10:17:47;;;;;;;12.57;9.05;;;11.60;93.20;;;;;;5008313;28;20045;-79
2021/10/25 10:20:35;;;;;;;9.55;7.80;;;11.70;93.10;;;;;;5003749;28;20044;-78
2021/10/25 10:23:20;;;;;;;10.23;8.07;;;11.80;93.00;;;;;;5022384;28;20041;-82
2021/10/25 10:26:13;;;;;;;10.55;8.02;;;12.00;92.80;;;;;;5013349;28;20064;-81
2021/10/25 10:29:08;;;;;;;13.38;7.90;;;12.20;92.50;;;;;;5006519;28;20117;-79
2021/10/25 10:32:02;;;;;;;15.25;9.05;;;12.10;92.50;;;;;;5005634;28;20449;-79
2021/10/25 10:34:51;;;;;;;13.63;8.85;;;12.10;92.50;;;;;;5019663;28;20052;-79
2021/10/25 10:37:40;;;;;;;14.80;8.65;;;12.00;92.70;;;;;;5005829;28;20501;-79
2021/10/25 10:40:34;;;;;;;12.90;9.20;;;12.20;92.80;;;;;;5021016;28;20037;-80
2021/10/25 10:43:24;;;;;;;11.70;9.05;;;12.30;92.50;;;;;;5004550;28;20072;-77
2021/10/25 10:46:13;;;;;;;10.77;9.05;;;12.40;92.30;;;;;;5009019;28;20040;-79
2021/10/25 10:49:01;;;;;;;12.40;9.35;;;12.30;92.50;;;;;;5021443;28;20056;-81
2021/10/25 10:52:08;;;;;;;12.27;8.90;;;12.20;92.60;;;;;;5006743;28;20121;-80
2021/10/25 10:55:12;;;;;;;14.98;9.00;;;12.30;92.60;;;;;;4993080;28;20093;-80
2021/10/25 11:01:00;;;;;;;13.70;8.57;;;12.60;92.50;;;;;;4986642;28;20053;-78
2021/10/25 11:03:56;;;;;;;19.35;9.95;;;12.70;92.00;;;;;;5000890;28;20041;-79
2021/10/25 11:06:40;;;;;;;13.30;8.48;;;13.00;91.90;;;;;;5003219;28;20029;-81
2021/10/25 11:09:31;;;;;;;13.87;8.10;;;13.00;91.50;;;;;;4990620;28;20065;-80
2021/10/25 11:12:20;;;;;;;10.07;8.07;;;13.10;91.40;;;;;;5036012;28;20036;-80
2021/10/25 11:15:06;;;;;;;11.52;6.95;;;13.20;91.40;;;;;;5029899;28;20037;-78
2021/10/25 11:18:00;;;;;;;9.32;6.88;;;13.10;90.30;;;;;;5044518;28;20049;-80
2021/10/25 11:20:44;;;;;;;10.77;6.90;;;13.10;90.70;;;;;;5002367;28;20029;-80
2021/10/25 11:23:43;;;;;;;18.13;7.00;;;13.10;90.30;;;;;;5007195;28;20567;-81
2021/10/25 11:26:57;;;;;;;9.10;6.85;;;13.20;89.80;;;;;;5012245;28;20033;-79
2021/10/25 11:29:41;;;;;;;8.73;6.82;;;13.30;89.90;;;;;;4995050;28;20045;-79
2021/10/25 11:32:28;;;;;;;11.13;6.83;;;13.40;89.50;;;;;;5022287;28;20103;-79
2021/10/25 11:35:14;;;;;;;10.30;7.30;;;13.40;88.50;;;;;;5021484;28;20461;-76
2021/10/25 11:38:02;;;;;;;10.02;7.30;;;13.20;89.00;;;;;;5006765;28;20117;-76
2021/10/25 11:40:47;;;;;;;10.98;7.97;;;13.20;90.10;;;;;;5005794;28;20041;-75
2021/10/25 11:43:31;;;;;;;10.57;7.65;;;13.10;89.80;;;;;;5006380;28;20036;-77
2021/10/25 11:46:21;;;;;;;14.07;7.00;;;13.10;90.00;;;;;;5005744;28;20065;-76
2021/10/25 11:49:05;;;;;;;12.38;7.05;;;13.20;89.90;;;;;;5022520;28;20033;-79
2021/10/25 11:51:54;;;;;;;14.15;7.78;;;13.20;90.10;;;;;;5022086;28;20072;-79
2021/10/25 11:54:50;;;;;;;10.90;6.88;;;13.10;90.40;;;;;;4999211;28;20041;-80
2021/10/25 11:57:35;;;;;;;10.63;6.80;;;13.00;90.00;;;;;;5004031;28;20149;-79
2021/10/25 12:00:21;;;;;;;7.80;6.47;;;13.00;89.30;;;;;;5005962;28;20041;-78
2021/10/25 12:03:12;;;;;;;9.55;6.50;;;13.10;89.60;;;;;;4979392;28;20092;-80
2021/10/25 12:05:57;;;;;;;7.63;6.05;;;13.10;89.50;;;;;;4991649;28;20108;-79
2021/10/25 12:08:41;;;;;;;11.70;6.70;;;13.20;89.50;;;;;;4988824;28;20494;-80
2021/10/25 12:11:53;;;;;;;9.98;6.40;;;13.10;89.80;;;;;;4989802;28;20165;-80
2021/10/25 12:14:39;;;;;;;14.20;6.65;;;13.30;88.50;;;;;;4978995;28;20033;-81
2021/10/25 12:17:28;;;;;;;8.15;6.05;;;13.40;88.50;;;;;;4988047;28;20398;-79
2021/10/25 12:20:21;;;;;;;11.55;6.38;;;13.50;87.30;;;;;;4988994;28;20065;-80
2021/10/25 12:23:13;;;;;;;7.45;6.18;;;13.50;87.10;;;;;;4989482;28;20118;-80
2021/10/25 12:26:04;;;;;;;10.00;5.97;;;13.50;87.50;;;;;;5004631;28;20046;-81
2021/10/25 12:28:48;;;;;;;8.55;6.28;;;13.50;87.30;;;;;;4990920;28;20457;-81
2021/10/25 12:31:32;;;;;;;9.63;6.00;;;13.60;86.40;;;;;;4975927;28;20040;-80
2021/10/25 12:34:16;;;;;;;9.23;5.55;;;13.60;87.20;;;;;;4991909;28;20095;-80
2021/10/25 12:37:04;;;;;;;9.98;5.63;;;13.70;87.10;;;;;;4999608;28;20095;-79
2021/10/25 12:39:51;;;;;;;10.52;5.43;;;13.70;86.20;;;;;;5002372;28;20061;-80
2021/10/25 12:42:41;;;;;;;9.57;5.72;;;13.60;86.30;;;;;;5003530;28;20108;-76
2021/10/25 12:45:34;;;;;;;9.38;6.10;;;13.70;85.60;;;;;;4988282;28;20028;-77
2021/10/25 12:48:20;;;;;;;9.07;6.13;;;13.50;85.70;;;;;;4997973;28;20034;-76
2021/10/25 12:51:05;;;;;;;8.68;5.50;;;13.60;86.30;;;;;;5000360;28;20045;-77
2021/10/25 12:53:51;;;;;;;11.52;6.97;;;13.60;86.90;;;;;;5010319;28;20092;-76
2021/10/25 12:56:36;;;;;;;9.13;6.30;;;13.60;86.40;;;;;;5005737;28;20040;-77
2021/10/25 12:59:21;;;;;;;9.05;6.03;;;13.60;86.40;;;;;;4992209;28;20041;-79
2021/10/25 13:02:09;;;;;;;8.13;4.63;;;13.70;86.30;;;;;;4993433;28;20516;-79
2021/10/25 13:05:08;;;;;;;8.60;5.15;;;13.90;85.80;;;;;;4961099;28;20037;-80
2021/10/25 13:07:57;;;;;;;9.93;6.63;;;14.10;84.60;;;;;;5021841;28;20534;-79
2021/10/25 13:10:45;;;;;;;9.93;5.05;;;14.20;84.80;;;;;;4993053;28;20068;-79
2021/10/25 13:13:36;;;;;;;10.30;6.13;;;14.40;84.40;;;;;;4992939;28;20048;-79
2021/10/25 13:16:23;;;;;;;11.20;6.43;;;14.40;84.40;;;;;;5009544;28;20110;-77
2021/10/25 13:19:07;;;;;;;10.02;5.95;;;14.60;84.20;;;;;;4981658;28;20041;-80
2021/10/25 13:21:51;;;;;;;8.70;7.35;;;14.40;84.90;;;;;;4980170;28;20086;-79
2021/10/25 13:24:39;;;;;;;9.85;7.20;;;14.20;85.70;;;;;;4983919;28;20068;-79
2021/10/25 13:27:24;;;;;;;10.35;7.00;;;14.30;86.10;;;;;;4994567;28;20515;-80
2021/10/25 13:30:09;;;;;;;10.30;7.05;;;14.20;86.40;;;;;;5011943;28;20521;-81
2021/10/25 13:32:54;;;;;;;12.55;6.70;;;14.50;86.70;;;;;;5013932;28;20065;-80
2021/10/25 13:35:39;;;;;;;9.27;6.30;;;14.80;83.00;;;;;;5012510;28;20394;-79
2021/10/25 13:38:23;;;;;;;10.67;6.43;;;15.00;82.70;;;;;;5006737;28;20033;-80
2021/10/25 13:41:08;;;;;;;16.73;6.40;;;15.20;81.70;;;;;;5010612;28;20546;-80
2021/10/25 13:43:52;;;;;;;9.35;6.95;;;15.70;80.80;;;;;;4988770;28;20101;-81
2021/10/25 13:46:37;;;;;;;8.82;5.78;;;15.80;79.10;;;;;;4971472;28;20044;-81
2021/10/25 13:49:24;;;;;;;;;;;15.60;79.40;;;;;;4999118;28;20125;-83
2021/10/25 13:52:08;;;;;;;9.55;6.32;;;15.40;80.30;;;;;;4986978;28;20041;-81
2021/10/25 13:54:54;;;;;;;8.57;5.68;;;15.40;80.10;;;;;;4987342;28;20045;-82
2021/10/25 13:57:39;;;;;;;8.07;5.65;;;15.60;78.50;;;;;;4978829;28;20045;-79
2021/10/25 14:00:24;;;;;;;9.55;6.28;;;15.70;78.70;;;;;;4982979;28;20065;-80
2021/10/25 14:03:08;;;;;;;9.75;6.43;;;15.70;78.70;;;;;;4998000;28;20032;-80
2021/10/25 14:05:54;;;;;;;9.38;5.43;;;16.00;78.10;;;;;;4976662;28;20050;-81
2021/10/25 14:08:38;;;;;;;6.97;5.78;;;16.10;78.10;;;;;;4974590;28;20029;-79
2021/10/25 14:11:26;;;;;;;5.97;5.35;;;16.20;77.10;;;;;;4986637;28;20454;-79
2021/10/25 14:14:18;;;;;;;8.98;5.28;;;16.10;76.90;;;;;;5001091;28;20120;-80
2021/10/25 14:17:03;;;;;;;11.13;5.18;;;15.70;77.10;;;;;;4998670;28;20045;-80
2021/10/25 14:19:47;;;;;;;;;;;15.50;77.70;;;;;;4973276;28;20038;-80
2021/10/25 14:22:32;;;;;;;9.30;6.40;;;15.60;78.00;;;;;;4999704;28;19928;-80
2021/10/25 14:25:16;;;;;;;9.48;5.40;;;16.00;77.60;;;;;;4970817;28;20041;-76
2021/10/25 14:28:02;;;;;;;7.95;5.53;;;16.70;76.10;;;;;;4984828;28;20118;-75
2021/10/25 14:30:46;;;;;;;7.25;5.25;;;16.90;74.80;;;;;;4985330;28;20073;-76
2021/10/25 14:33:31;;;;;;;7.13;5.00;;;16.30;75.90;;;;;;4970690;28;20101;-76
2021/10/25 14:36:15;;;;;;;8.63;5.40;;;15.80;77.30;;;;;;4984228;28;20085;-77
2021/10/25 14:42:08;;;;;;;7.32;5.30;;;16.10;76.80;;;;;;4985627;28;20083;-77
2021/10/25 14:53:47;;;;;;;8.82;6.00;;;14.80;80.80;;;;;;5002222;28;20104;-76
2021/10/25 14:56:31;;;;;;;10.30;6.20;;;14.60;81.70;;;;;;4973080;28;20046;-76
2021/10/25 14:59:16;;;;;;;9.80;6.88;;;14.40;82.60;;;;;;4972844;28;20438;-76
2021/10/25 15:02:00;;;;;;;8.95;6.78;;;14.30;83.20;;;;;;4974628;28;20106;-75
2021/10/25 15:04:58;;;;;;;11.18;6.53;;;14.20;84.00;;;;;;4990412;28;20395;-75
2021/10/25 15:07:52;;;;;;;10.27;7.32;;;14.00;84.90;;;;;;4995502;28;20089;-77
2021/10/25 15:10:39;;;;;;;13.15;7.70;;;14.00;85.40;;;;;;4978229;28;20085;-76
2021/10/25 15:13:47;;;;;;;9.07;6.57;;;13.90;86.90;;;;;;5002771;28;20046;-77
2021/10/25 15:16:32;;;;;;;9.40;6.78;;;13.90;86.80;;;;;;5003172;28;20104;-76
2021/10/25 15:19:16;;;;;;;7.28;5.90;;;13.70;87.40;;;;;;4974668;28;20037;-76
2021/10/25 15:22:02;;;;;;;;;;;13.70;87.50;;;;;;4989432;28;20053;-78
2021/10/25 15:24:55;;;;;;;8.25;6.68;;;13.70;87.90;;;;;;4988244;28;19981;-76
2021/10/25 15:27:42;;;;;;;9.77;6.85;;;13.60;88.40;;;;;;4986230;28;20030;-77
2021/10/25 15:30:26;;;;;;;10.25;7.25;;;13.60;89.00;;;;;;4986183;28;20577;-76
2021/10/25 15:33:11;;;;;;;15.23;8.23;;;13.50;89.70;;;;;;5001812;28;20056;-77
2021/10/25 15:35:57;;;;;;;11.30;7.70;;;13.40;90.20;;;;;;4983330;28;20352;-77
2021/10/25 15:38:42;;;;;;;12.43;7.82;;;13.30;90.60;;;;;;4996679;28;20040;-78
2021/10/25 15:41:26;;;;;;;12.50;7.68;;;13.30;91.20;;;;;;4994695;28;20076;-79
2021/10/25 15:44:11;;;;;;;11.83;8.67;;;13.40;91.30;;;;;;5005903;28;20100;-80
2021/10/25 15:46:55;;;;;;;10.05;8.73;;;13.40;91.30;;;;;;5008052;28;20057;-79
2021/10/25 15:49:41;;;;;;;13.93;8.77;;;13.40;91.10;;;;;;5021603;28;20063;-78
2021/10/25 15:52:26;;;;;;;12.23;8.48;;;13.40;90.80;;;;;;5005638;28;20560;-80
2021/10/25 15:55:12;;;;;;;13.18;8.30;;;13.30;91.00;;;;;;4987962;28;20394;-78
2021/10/25 15:57:57;;;;;;;10.45;7.88;;;13.00;91.30;;;;;;4986875;28;20037;-77
2021/10/25 16:00:42;;;;;;;12.90;8.43;;;12.90;91.50;;;;;;5006524;28;20040;-77
2021/10/25 16:03:26;;;;;;;12.10;8.80;;;12.90;91.70;;;;;;5020890;28;20039;-78
2021/10/25 16:06:10;;;;;;;13.43;8.57;;;12.80;92.00;;;;;;4992765;28;20044;-77
2021/10/25 16:08:54;;;;;;;10.32;8.73;;;12.80;92.00;;;;;;5020261;28;20091;-78